sensor_id;sensor_type;location;lat;lon;timestamp;pressure;altitude;pressure_sealevel;temperature;humidity
46876;BME280;32866;50.160;14.768;2022-10-26T00:00:40;99714.81;;;6.15;100.00
46876;BME280;32866;50.160;14.768;2022-10-26T00:03:32;99654.00;;;5.80;100.00
46876;BME280;32866;50.160;14.768;2022-10-26T00:06:59;99643.91;;;5.81;100.00
46876;BME280;32866;50.160;14.768;2022-10-26T00:09:55;99682.53;;;6.17;100.00
46876;BME280;32866;50.160;14.768;2022-10-26T00:13:09;99717.38;;;6.37;100.00
46876;BME280;32866;50.160;14.768;2022-10-26T00:24:46;99715.03;;;6.39;100.00
46876;BME280;32866;50.160;14.768;2022-10-26T00:27:13;99731.50;;;6.21;100.00
46876;BME280;32866;50.160;14.768;2022-10-26T00:30:53;99721.84;;;6.61;100.00
46876;BME280;32866;50.160;14.768;2022-10-26T00:34:23;99730.66;;;6.27;100.00
46876;BME280;32866;50.160;14.768;2022-10-26T00:40:30;99708.81;;;6.35;100.00
46876;BME280;32866;50.160;14.768;2022-10-26T01:06:36;99707.94;;;5.92;100.00
46876;BME280;32866;50.160;14.768;2022-10-26T01:09:02;99731.09;;;6.22;100.00
46876;BME280;32866;50.160;14.768;2022-10-26T01:11:28;99728.47;;;6.08;100.00
46876;BME280;32866;50.160;14.768;2022-10-26T01:13:55;99732.72;;;6.09;100.00
46876;BME280;32866;50.160;14.768;2022-10-26T01:16:29;99738.59;;;6.04;100.00
46876;BME280;32866;50.160;14.768;2022-10-26T01:21:59;99723.88;;;5.90;100.00
46876;BME280;32866;50.160;14.768;2022-10-26T01:30:22;99736.72;;;5.86;100.00
46876;BME280;32866;50.160;14.768;2022-10-26T01:35:31;99729.75;;;5.78;100.00
46876;BME280;32866;50.160;14.768;2022-10-26T01:38:05;99730.06;;;5.94;100.00
46876;BME280;32866;50.160;14.768;2022-10-26T01:40:37;99725.03;;;5.89;100.00
46876;BME280;32866;50.160;14.768;2022-10-26T01:43:06;99729.41;;;5.72;100.00
46876;BME280;32866;50.160;14.768;2022-10-26T01:45:34;99721.59;;;5.82;100.00
46876;BME280;32866;50.160;14.768;2022-10-26T01:48:02;99716.28;;;5.56;100.00
46876;BME280;32866;50.160;14.768;2022-10-26T01:50:29;99722.53;;;5.43;100.00
46876;BME280;32866;50.160;14.768;2022-10-26T01:52:55;99712.44;;;5.50;100.00
46876;BME280;32866;50.160;14.768;2022-10-26T01:55:42;99719.03;;;5.46;100.00
46876;BME280;32866;50.160;14.768;2022-10-26T01:58:43;99699.34;;;5.20;100.00
46876;BME280;32866;50.160;14.768;2022-10-26T02:11:52;99685.44;;;5.04;100.00
46876;BME280;32866;50.160;14.768;2022-10-26T02:16:57;99710.22;;;5.16;100.00
46876;BME280;32866;50.160;14.768;2022-10-26T02:19:39;99704.41;;;5.18;100.00
46876;BME280;32866;50.160;14.768;2022-10-26T02:22:17;99714.50;;;5.10;100.00
46876;BME280;32866;50.160;14.768;2022-10-26T02:24:43;99713.28;;;5.26;100.00
46876;BME280;32866;50.160;14.768;2022-10-26T02:27:26;99714.13;;;5.08;100.00
46876;BME280;32866;50.160;14.768;2022-10-26T02:29:54;99714.91;;;5.05;100.00
46876;BME280;32866;50.160;14.768;2022-10-26T02:32:26;99712.16;;;5.16;100.00
46876;BME280;32866;50.160;14.768;2022-10-26T02:34:56;99707.81;;;5.44;100.00
46876;BME280;32866;50.160;14.768;2022-10-26T02:37:23;99710.91;;;5.42;100.00
46876;BME280;32866;50.160;14.768;2022-10-26T02:39:51;99715.59;;;5.31;100.00
46876;BME280;32866;50.160;14.768;2022-10-26T02:42:18;99683.09;;;5.13;100.00
46876;BME280;32866;50.160;14.768;2022-10-26T02:44:53;99715.94;;;5.47;100.00
46876;BME280;32866;50.160;14.768;2022-10-26T02:47:22;99710.88;;;5.46;100.00
46876;BME280;32866;50.160;14.768;2022-10-26T02:49:48;99711.72;;;5.35;100.00
46876;BME280;32866;50.160;14.768;2022-10-26T02:55:10;99703.22;;;5.23;100.00
46876;BME280;32866;50.160;14.768;2022-10-26T02:57:40;99708.66;;;5.23;100.00
46876;BME280;32866;50.160;14.768;2022-10-26T03:00:11;99699.72;;;5.26;100.00
46876;BME280;32866;50.160;14.768;2022-10-26T03:02:38;99684.63;;;5.10;100.00
46876;BME280;32866;50.160;14.768;2022-10-26T03:05:12;99707.06;;;5.29;100.00
46876;BME280;32866;50.160;14.768;2022-10-26T03:07:38;99673.06;;;4.85;100.00
46876;BME280;32866;50.160;14.768;2022-10-26T03:10:04;99676.06;;;5.15;100.00
46876;BME280;32866;50.160;14.768;2022-10-26T03:12:29;99716.03;;;5.18;100.00
46876;BME280;32866;50.160;14.768;2022-10-26T03:14:55;99704.00;;;5.27;100.00
46876;BME280;32866;50.160;14.768;2022-10-26T03:17:20;99710.16;;;5.31;100.00
46876;BME280;32866;50.160;14.768;2022-10-26T03:19:45;99695.47;;;5.25;100.00
46876;BME280;32866;50.160;14.768;2022-10-26T03:22:11;99696.25;;;5.14;100.00
46876;BME280;32866;50.160;14.768;2022-10-26T03:24:36;99693.19;;;5.05;100.00
46876;BME280;32866;50.160;14.768;2022-10-26T03:27:01;99717.59;;;5.23;100.00
46876;BME280;32866;50.160;14.768;2022-10-26T03:29:27;99713.31;;;5.18;100.00
46876;BME280;32866;50.160;14.768;2022-10-26T03:31:52;99675.00;;;4.88;100.00
46876;BME280;32866;50.160;14.768;2022-10-26T03:34:19;99685.47;;;4.86;100.00
46876;BME280;32866;50.160;14.768;2022-10-26T03:36:45;99673.81;;;4.92;100.00
46876;BME280;32866;50.160;14.768;2022-10-26T03:39:10;99704.44;;;5.07;100.00
46876;BME280;32866;50.160;14.768;2022-10-26T03:41:36;99707.91;;;5.18;100.00
46876;BME280;32866;50.160;14.768;2022-10-26T03:44:01;99693.19;;;5.05;100.00
46876;BME280;32866;50.160;14.768;2022-10-26T03:46:26;99696.34;;;4.93;100.00
46876;BME280;32866;50.160;14.768;2022-10-26T03:48:52;99692.81;;;5.03;100.00
46876;BME280;32866;50.160;14.768;2022-10-26T03:51:17;99694.38;;;4.97;100.00
46876;BME280;32866;50.160;14.768;2022-10-26T03:53:42;99669.91;;;5.04;100.00
46876;BME280;32866;50.160;14.768;2022-10-26T03:56:08;99709.00;;;5.32;100.00
46876;BME280;32866;50.160;14.768;2022-10-26T03:58:33;99686.19;;;5.08;100.00
46876;BME280;32866;50.160;14.768;2022-10-26T04:00:58;99711.72;;;5.32;100.00
46876;BME280;32866;50.160;14.768;2022-10-26T04:03:24;99705.19;;;5.08;100.00
46876;BME280;32866;50.160;14.768;2022-10-26T04:05:49;99703.22;;;5.19;100.00
46876;BME280;32866;50.160;14.768;2022-10-26T04:08:15;99722.22;;;5.23;100.00
46876;BME280;32866;50.160;14.768;2022-10-26T04:10:40;99724.22;;;5.11;100.00
46876;BME280;32866;50.160;14.768;2022-10-26T04:13:05;99719.56;;;5.08;100.00
46876;BME280;32866;50.160;14.768;2022-10-26T04:15:31;99707.19;;;4.93;100.00
46876;BME280;32866;50.160;14.768;2022-10-26T04:17:57;99707.16;;;5.00;100.00
46876;BME280;32866;50.160;14.768;2022-10-26T04:20:24;99734.25;;;5.25;100.00
46876;BME280;32866;50.160;14.768;2022-10-26T04:22:59;99728.47;;;5.12;100.00
46876;BME280;32866;50.160;14.768;2022-10-26T04:25:25;99731.97;;;5.13;100.00
46876;BME280;32866;50.160;14.768;2022-10-26T04:27:50;99732.69;;;5.28;100.00
46876;BME280;32866;50.160;14.768;2022-10-26T04:30:16;99730.41;;;5.19;100.00
46876;BME280;32866;50.160;14.768;2022-10-26T04:32:41;99729.59;;;5.26;100.00
46876;BME280;32866;50.160;14.768;2022-10-26T04:35:07;99736.63;;;5.09;100.00
46876;BME280;32866;50.160;14.768;2022-10-26T04:37:32;99696.34;;;4.78;100.00
46876;BME280;32866;50.160;14.768;2022-10-26T04:39:58;99698.66;;;4.87;100.00
46876;BME280;32866;50.160;14.768;2022-10-26T04:42:23;99705.25;;;4.79;100.00
46876;BME280;32866;50.160;14.768;2022-10-26T04:44:48;99744.75;;;5.16;100.00
46876;BME280;32866;50.160;14.768;2022-10-26T04:47:14;99748.28;;;5.16;100.00
46876;BME280;32866;50.160;14.768;2022-10-26T04:49:39;99740.50;;;5.18;100.00
46876;BME280;32866;50.160;14.768;2022-10-26T04:52:05;99747.88;;;5.07;100.00
46876;BME280;32866;50.160;14.768;2022-10-26T04:54:30;99713.41;;;4.79;100.00
46876;BME280;32866;50.160;14.768;2022-10-26T04:56:56;99753.34;;;5.04;100.00
46876;BME280;32866;50.160;14.768;2022-10-26T04:59:21;99721.56;;;4.90;100.00
46876;BME280;32866;50.160;14.768;2022-10-26T05:01:46;99719.56;;;5.01;100.00
46876;BME280;32866;50.160;14.768;2022-10-26T05:04:12;99758.75;;;5.18;100.00
46876;BME280;32866;50.160;14.768;2022-10-26T05:06:37;99758.75;;;5.18;100.00
46876;BME280;32866;50.160;14.768;2022-10-26T05:09:03;99732.81;;;4.77;100.00
46876;BME280;32866;50.160;14.768;2022-10-26T05:11:28;99721.19;;;4.59;100.00
46876;BME280;32866;50.160;14.768;2022-10-26T05:13:54;99723.13;;;4.58;100.00
46876;BME280;32866;50.160;14.768;2022-10-26T05:16:19;99731.28;;;4.73;100.00
46876;BME280;32866;50.160;14.768;2022-10-26T05:18:47;99755.31;;;4.85;100.00
46876;BME280;32866;50.160;14.768;2022-10-26T05:21:13;99704.50;;;4.60;100.00
46876;BME280;32866;50.160;14.768;2022-10-26T05:23:44;99740.56;;;4.93;100.00
46876;BME280;32866;50.160;14.768;2022-10-26T05:26:11;99711.50;;;4.58;100.00
46876;BME280;32866;50.160;14.768;2022-10-26T05:28:36;99711.13;;;4.38;100.00
46876;BME280;32866;50.160;14.768;2022-10-26T05:31:01;99734.78;;;4.41;100.00
46876;BME280;32866;50.160;14.768;2022-10-26T05:33:27;99727.00;;;4.64;100.00
46876;BME280;32866;50.160;14.768;2022-10-26T05:35:55;99756.47;;;4.73;100.00
46876;BME280;32866;50.160;14.768;2022-10-26T05:38:20;99757.63;;;4.69;100.00
46876;BME280;32866;50.160;14.768;2022-10-26T05:40:47;99771.22;;;4.65;100.00
46876;BME280;32866;50.160;14.768;2022-10-26T05:43:12;99765.00;;;4.86;100.00
46876;BME280;32866;50.160;14.768;2022-10-26T05:45:38;99732.81;;;4.49;100.00
46876;BME280;32866;50.160;14.768;2022-10-26T05:48:03;99759.19;;;4.73;100.00
46876;BME280;32866;50.160;14.768;2022-10-26T05:50:29;99773.13;;;4.82;100.00
46876;BME280;32866;50.160;14.768;2022-10-26T05:52:54;99715.00;;;4.58;100.00
46876;BME280;32866;50.160;14.768;2022-10-26T05:55:20;99771.59;;;4.81;100.00
46876;BME280;32866;50.160;14.768;2022-10-26T05:57:46;99761.53;;;4.75;100.00
46876;BME280;32866;50.160;14.768;2022-10-26T06:00:19;99762.69;;;4.85;100.00
46876;BME280;32866;50.160;14.768;2022-10-26T06:05:58;99771.56;;;4.96;100.00
46876;BME280;32866;50.160;14.768;2022-10-26T06:08:24;99767.69;;;5.15;100.00
46876;BME280;32866;50.160;14.768;2022-10-26T06:10:50;99768.41;;;5.23;100.00
46876;BME280;32866;50.160;14.768;2022-10-26T06:13:16;99776.94;;;5.32;100.00
46876;BME280;32866;50.160;14.768;2022-10-26T06:30:00;99783.03;;;5.72;100.00
46876;BME280;32866;50.160;14.768;2022-10-26T06:32:27;99790.00;;;5.76;100.00
46876;BME280;32866;50.160;14.768;2022-10-26T06:37:44;99794.59;;;5.90;100.00
46876;BME280;32866;50.160;14.768;2022-10-26T06:40:14;99788.78;;;5.85;100.00
46876;BME280;32866;50.160;14.768;2022-10-26T06:42:40;99790.69;;;5.91;100.00
46876;BME280;32866;50.160;14.768;2022-10-26T06:45:06;99771.41;;;5.61;100.00
46876;BME280;32866;50.160;14.768;2022-10-26T06:47:43;99798.94;;;5.77;100.00
46876;BME280;32866;50.160;14.768;2022-10-26T06:50:35;99796.94;;;5.88;100.00
46876;BME280;32866;50.160;14.768;2022-10-26T06:53:13;99792.66;;;5.87;100.00
46876;BME280;32866;50.160;14.768;2022-10-26T06:55:42;99769.09;;;5.59;100.00
46876;BME280;32866;50.160;14.768;2022-10-26T06:58:19;99801.19;;;5.93;100.00
46876;BME280;32866;50.160;14.768;2022-10-26T07:00:47;99803.94;;;5.97;100.00
46876;BME280;32866;50.160;14.768;2022-10-26T07:03:13;99803.13;;;5.92;100.00
46876;BME280;32866;50.160;14.768;2022-10-26T07:05:38;99802.41;;;5.88;100.00
46876;BME280;32866;50.160;14.768;2022-10-26T07:08:04;99807.78;;;6.03;100.00
46876;BME280;32866;50.160;14.768;2022-10-26T07:10:30;99806.25;;;6.02;100.00
46876;BME280;32866;50.160;14.768;2022-10-26T07:12:56;99788.78;;;5.92;100.00
46876;BME280;32866;50.160;14.768;2022-10-26T07:15:21;99812.44;;;6.06;100.00
46876;BME280;32866;50.160;14.768;2022-10-26T07:17:48;99816.66;;;6.14;100.00
46876;BME280;32866;50.160;14.768;2022-10-26T07:20:18;99814.78;;;6.04;100.00
46876;BME280;32866;50.160;14.768;2022-10-26T07:22:44;99813.97;;;6.10;100.00
46876;BME280;32866;50.160;14.768;2022-10-26T07:25:09;99826.28;;;6.29;100.00
46876;BME280;32866;50.160;14.768;2022-10-26T07:27:36;99815.78;;;6.31;100.00
46876;BME280;32866;50.160;14.768;2022-10-26T07:30:02;99813.69;;;6.57;100.00
46876;BME280;32866;50.160;14.768;2022-10-26T07:32:27;99819.88;;;6.61;100.00
46876;BME280;32866;50.160;14.768;2022-10-26T07:34:53;99825.31;;;6.61;100.00
46876;BME280;32866;50.160;14.768;2022-10-26T07:37:19;99836.56;;;6.63;100.00
46876;BME280;32866;50.160;14.768;2022-10-26T07:39:44;99831.84;;;6.75;100.00
46876;BME280;32866;50.160;14.768;2022-10-26T07:42:09;99798.81;;;6.69;100.00
46876;BME280;32866;50.160;14.768;2022-10-26T07:44:35;99793.91;;;6.95;100.00
46876;BME280;32866;50.160;14.768;2022-10-26T07:47:00;99815.81;;;6.80;100.00
46876;BME280;32866;50.160;14.768;2022-10-26T07:49:25;99834.50;;;6.85;100.00
46876;BME280;32866;50.160;14.768;2022-10-26T07:51:51;99801.38;;;6.87;100.00
46876;BME280;32866;50.160;14.768;2022-10-26T07:54:16;99814.63;;;6.85;100.00
46876;BME280;32866;50.160;14.768;2022-10-26T07:56:42;99844.16;;;6.90;100.00
46876;BME280;32866;50.160;14.768;2022-10-26T07:59:07;99841.94;;;7.23;100.00
46876;BME280;32866;50.160;14.768;2022-10-26T08:01:32;99806.28;;;7.06;100.00
46876;BME280;32866;50.160;14.768;2022-10-26T08:03:58;99807.81;;;7.08;100.00
46876;BME280;32866;50.160;14.768;2022-10-26T08:06:23;99814.75;;;7.16;100.00
46876;BME280;32866;50.160;14.768;2022-10-26T08:08:48;99824.03;;;7.22;100.00
46876;BME280;32866;50.160;14.768;2022-10-26T08:11:15;99820.25;;;7.09;100.00
46876;BME280;32866;50.160;14.768;2022-10-26T08:13:41;99810.13;;;7.13;100.00
46876;BME280;32866;50.160;14.768;2022-10-26T08:16:07;99852.56;;;7.52;100.00
46876;BME280;32866;50.160;14.768;2022-10-26T08:18:32;99855.59;;;7.61;100.00
46876;BME280;32866;50.160;14.768;2022-10-26T08:21:05;99851.00;;;7.54;100.00
46876;BME280;32866;50.160;14.768;2022-10-26T08:23:32;99846.34;;;7.51;100.00
46876;BME280;32866;50.160;14.768;2022-10-26T08:25:58;99870.31;;;7.67;100.00
46876;BME280;32866;50.160;14.768;2022-10-26T08:28:24;99832.66;;;7.55;100.00
46876;BME280;32866;50.160;14.768;2022-10-26T08:30:50;99866.28;;;7.83;100.00
46876;BME280;32866;50.160;14.768;2022-10-26T08:33:15;99867.13;;;7.76;100.00
46876;BME280;32866;50.160;14.768;2022-10-26T08:35:40;99867.22;;;7.65;100.00
46876;BME280;32866;50.160;14.768;2022-10-26T08:38:06;99858.25;;;7.68;100.00
46876;BME280;32866;50.160;14.768;2022-10-26T08:40:36;99872.81;;;7.89;100.00
46876;BME280;32866;50.160;14.768;2022-10-26T08:43:16;99872.47;;;7.87;100.00
46876;BME280;32866;50.160;14.768;2022-10-26T08:45:56;99865.59;;;8.06;100.00
46876;BME280;32866;50.160;14.768;2022-10-26T08:48:26;99876.91;;;8.04;100.00
46876;BME280;32866;50.160;14.768;2022-10-26T08:50:56;99868.72;;;8.08;100.00
46876;BME280;32866;50.160;14.768;2022-10-26T08:53:42;99871.56;;;8.28;100.00
46876;BME280;32866;50.160;14.768;2022-10-26T08:56:19;99867.41;;;8.16;100.00
46876;BME280;32866;50.160;14.768;2022-10-26T08:59:02;99868.09;;;8.24;100.00
46876;BME280;32866;50.160;14.768;2022-10-26T09:01:31;99862.50;;;8.34;100.00
46876;BME280;32866;50.160;14.768;2022-10-26T09:04:00;99857.75;;;8.11;100.00
46876;BME280;32866;50.160;14.768;2022-10-26T09:09:07;99834.22;;;8.21;100.00
46876;BME280;32866;50.160;14.768;2022-10-26T09:18:07;99872.13;;;8.46;100.00
46876;BME280;32866;50.160;14.768;2022-10-26T09:23:51;99850.81;;;8.34;100.00
46876;BME280;32866;50.160;14.768;2022-10-26T09:29:00;99874.41;;;8.51;100.00
46876;BME280;32866;50.160;14.768;2022-10-26T09:31:26;99878.31;;;8.50;100.00
46876;BME280;32866;50.160;14.768;2022-10-26T09:33:53;99889.28;;;8.74;100.00
46876;BME280;32866;50.160;14.768;2022-10-26T09:36:21;99861.16;;;8.77;100.00
46876;BME280;32866;50.160;14.768;2022-10-26T09:38:55;99878.38;;;9.21;100.00
46876;BME280;32866;50.160;14.768;2022-10-26T09:41:26;99891.72;;;9.19;100.00
46876;BME280;32866;50.160;14.768;2022-10-26T09:49:14;99893.25;;;8.97;100.00
46876;BME280;32866;50.160;14.768;2022-10-26T09:51:42;99894.97;;;9.10;100.00
46876;BME280;32866;50.160;14.768;2022-10-26T09:54:16;99875.47;;;8.85;100.00
46876;BME280;32866;50.160;14.768;2022-10-26T09:56:55;99895.28;;;9.40;100.00
46876;BME280;32866;50.160;14.768;2022-10-26T09:59:23;99901.81;;;9.22;100.00
46876;BME280;32866;50.160;14.768;2022-10-26T10:01:49;99890.88;;;9.22;100.00
46876;BME280;32866;50.160;14.768;2022-10-26T10:04:19;99903.06;;;9.41;100.00
46876;BME280;32866;50.160;14.768;2022-10-26T10:06:51;99896.75;;;9.44;100.00
46876;BME280;32866;50.160;14.768;2022-10-26T10:09:21;99898.69;;;9.68;100.00
46876;BME280;32866;50.160;14.768;2022-10-26T10:14:21;99895.13;;;10.11;100.00
46876;BME280;32866;50.160;14.768;2022-10-26T10:16:53;99894.91;;;10.01;100.00
46876;BME280;32866;50.160;14.768;2022-10-26T10:19:37;99868.09;;;9.93;100.00
46876;BME280;32866;50.160;14.768;2022-10-26T10:25:00;99890.69;;;9.97;100.00
46876;BME280;32866;50.160;14.768;2022-10-26T10:27:27;99891.59;;;9.90;100.00
46876;BME280;32866;50.160;14.768;2022-10-26T10:29:55;99893.09;;;9.75;100.00
46876;BME280;32866;50.160;14.768;2022-10-26T10:32:25;99888.19;;;9.86;100.00
46876;BME280;32866;50.160;14.768;2022-10-26T10:34:59;99881.53;;;9.87;100.00
46876;BME280;32866;50.160;14.768;2022-10-26T10:40:08;99879.56;;;10.08;100.00
46876;BME280;32866;50.160;14.768;2022-10-26T10:42:41;99877.22;;;10.26;100.00
46876;BME280;32866;50.160;14.768;2022-10-26T10:45:19;99884.13;;;10.34;100.00
46876;BME280;32866;50.160;14.768;2022-10-26T10:50:23;99864.81;;;10.58;100.00
46876;BME280;32866;50.160;14.768;2022-10-26T10:52:48;99869.06;;;10.59;100.00
46876;BME280;32866;50.160;14.768;2022-10-26T11:00:23;99871.84;;;10.92;100.00
46876;BME280;32866;50.160;14.768;2022-10-26T11:03:00;99873.22;;;11.00;100.00
46876;BME280;32866;50.160;14.768;2022-10-26T11:05:43;99853.16;;;11.20;100.00
46876;BME280;32866;50.160;14.768;2022-10-26T11:10:53;99887.94;;;11.39;100.00
46876;BME280;32866;50.160;14.768;2022-10-26T11:16:04;99878.63;;;11.49;100.00
46876;BME280;32866;50.160;14.768;2022-10-26T11:18:39;99883.22;;;11.69;100.00
46876;BME280;32866;50.160;14.768;2022-10-26T11:23:53;99875.31;;;11.42;100.00
46876;BME280;32866;50.160;14.768;2022-10-26T11:26:27;99871.97;;;11.34;100.00
46876;BME280;32866;50.160;14.768;2022-10-26T11:29:00;99874.56;;;11.41;100.00
46876;BME280;32866;50.160;14.768;2022-10-26T11:31:37;99866.41;;;11.38;100.00
46876;BME280;32866;50.160;14.768;2022-10-26T11:34:20;99847.19;;;11.38;100.00
46876;BME280;32866;50.160;14.768;2022-10-26T11:37:38;99815.94;;;11.19;100.00
46876;BME280;32866;50.160;14.768;2022-10-26T11:39:52;99825.94;;;11.42;100.00
46876;BME280;32866;50.160;14.768;2022-10-26T11:42:27;99809.97;;;11.53;100.00
46876;BME280;32866;50.160;14.768;2022-10-26T11:47:32;99790.31;;;11.55;100.00
46876;BME280;32866;50.160;14.768;2022-10-26T11:50:22;99796.59;;;11.68;100.00
46876;BME280;32866;50.160;14.768;2022-10-26T11:52:55;99796.78;;;11.61;100.00
46876;BME280;32866;50.160;14.768;2022-10-26T11:55:23;99821.22;;;11.84;100.00
46876;BME280;32866;50.160;14.768;2022-10-26T11:57:50;99842.41;;;12.26;100.00
46876;BME280;32866;50.160;14.768;2022-10-26T12:00:18;99835.50;;;12.21;100.00
46876;BME280;32866;50.160;14.768;2022-10-26T12:02:54;99842.06;;;12.11;100.00
46876;BME280;32866;50.160;14.768;2022-10-26T12:05:32;99867.06;;;12.42;100.00
46876;BME280;32866;50.160;14.768;2022-10-26T12:08:04;99866.94;;;12.20;100.00
46876;BME280;32866;50.160;14.768;2022-10-26T12:10:32;99875.97;;;12.34;100.00
46876;BME280;32866;50.160;14.768;2022-10-26T12:13:24;99874.06;;;12.18;100.00
46876;BME280;32866;50.160;14.768;2022-10-26T12:18:52;99883.81;;;12.06;100.00
46876;BME280;32866;50.160;14.768;2022-10-26T12:21:24;99887.69;;;12.09;100.00
46876;BME280;32866;50.160;14.768;2022-10-26T12:23:59;99872.34;;;11.95;100.00
46876;BME280;32866;50.160;14.768;2022-10-26T12:34:03;99892.31;;;11.66;100.00
46876;BME280;32866;50.160;14.768;2022-10-26T12:36:48;99889.59;;;11.66;100.00
46876;BME280;32866;50.160;14.768;2022-10-26T12:47:04;99868.88;;;11.48;100.00
46876;BME280;32866;50.160;14.768;2022-10-26T12:50:17;99881.69;;;11.68;100.00
46876;BME280;32866;50.160;14.768;2022-10-26T12:53:04;99880.59;;;11.95;100.00
46876;BME280;32866;50.160;14.768;2022-10-26T13:09:08;99867.16;;;12.65;100.00
46876;BME280;32866;50.160;14.768;2022-10-26T13:11:46;99855.41;;;12.77;100.00
46876;BME280;32866;50.160;14.768;2022-10-26T13:14:19;99864.50;;;12.99;100.00
46876;BME280;32866;50.160;14.768;2022-10-26T13:16:47;99843.63;;;12.89;100.00
46876;BME280;32866;50.160;14.768;2022-10-26T13:19:46;99859.53;;;13.07;100.00
46876;BME280;32866;50.160;14.768;2022-10-26T13:22:14;99857.41;;;13.24;100.00
46876;BME280;32866;50.160;14.768;2022-10-26T13:24:50;99837.47;;;13.20;100.00
46876;BME280;32866;50.160;14.768;2022-10-26T13:32:38;99855.41;;;13.25;100.00
46876;BME280;32866;50.160;14.768;2022-10-26T13:35:08;99857.41;;;13.24;100.00
46876;BME280;32866;50.160;14.768;2022-10-26T13:37:36;99834.25;;;12.99;100.00
46876;BME280;32866;50.160;14.768;2022-10-26T13:40:05;99861.06;;;13.08;100.00
46876;BME280;32866;50.160;14.768;2022-10-26T13:42:45;99854.94;;;12.91;100.00
46876;BME280;32866;50.160;14.768;2022-10-26T13:45:18;99862.53;;;12.87;100.00
46876;BME280;32866;50.160;14.768;2022-10-26T13:48:16;99861.88;;;12.83;100.00
46876;BME280;32866;50.160;14.768;2022-10-26T13:50:47;99867.25;;;12.87;100.00
46876;BME280;32866;50.160;14.768;2022-10-26T13:55:54;99844.28;;;12.68;100.00
46876;BME280;32866;50.160;14.768;2022-10-26T13:58:40;99860.78;;;12.80;100.00
46876;BME280;32866;50.160;14.768;2022-10-26T14:03:39;99863.00;;;12.73;100.00
46876;BME280;32866;50.160;14.768;2022-10-26T14:06:14;99864.75;;;12.67;100.00
46876;BME280;32866;50.160;14.768;2022-10-26T14:08:42;99836.06;;;12.42;100.00
46876;BME280;32866;50.160;14.768;2022-10-26T14:11:12;99859.91;;;12.58;100.00
46876;BME280;32866;50.160;14.768;2022-10-26T14:13:38;99861.03;;;12.60;100.00
46876;BME280;32866;50.160;14.768;2022-10-26T14:16:07;99843.22;;;12.52;100.00
46876;BME280;32866;50.160;14.768;2022-10-26T14:18:33;99876.41;;;12.71;100.00
46876;BME280;32866;50.160;14.768;2022-10-26T14:21:04;99872.19;;;12.92;100.00
46876;BME280;32866;50.160;14.768;2022-10-26T14:23:36;99873.19;;;12.85;100.00
46876;BME280;32866;50.160;14.768;2022-10-26T14:26:03;99864.31;;;12.68;100.00
46876;BME280;32866;50.160;14.768;2022-10-26T14:28:31;99871.22;;;12.60;100.00
46876;BME280;32866;50.160;14.768;2022-10-26T14:33:37;99870.91;;;12.58;100.00
46876;BME280;32866;50.160;14.768;2022-10-26T14:36:03;99873.34;;;12.56;100.00
46876;BME280;32866;50.160;14.768;2022-10-26T14:38:31;99877.41;;;12.51;100.00
46876;BME280;32866;50.160;14.768;2022-10-26T14:40:58;99852.53;;;12.29;100.00
46876;BME280;32866;50.160;14.768;2022-10-26T14:43:24;99867.06;;;12.42;100.00
46876;BME280;32866;50.160;14.768;2022-10-26T14:45:52;99844.28;;;12.16;100.00
46876;BME280;32866;50.160;14.768;2022-10-26T14:48:32;99872.13;;;12.44;100.00
46876;BME280;32866;50.160;14.768;2022-10-26T14:51:14;99887.50;;;12.41;100.00
46876;BME280;32866;50.160;14.768;2022-10-26T14:53:50;99873.53;;;12.36;100.00
46876;BME280;32866;50.160;14.768;2022-10-26T14:56:21;99874.41;;;12.33;100.00
46876;BME280;32866;50.160;14.768;2022-10-26T14:58:46;99845.59;;;12.24;100.00
46876;BME280;32866;50.160;14.768;2022-10-26T15:01:15;99877.06;;;12.49;100.00
46876;BME280;32866;50.160;14.768;2022-10-26T15:03:43;99896.19;;;12.40;100.00
46876;BME280;32866;50.160;14.768;2022-10-26T15:08:56;99895.22;;;12.59;100.00
46876;BME280;32866;50.160;14.768;2022-10-26T15:11:23;99906.22;;;12.72;100.00
46876;BME280;32866;50.160;14.768;2022-10-26T15:13:49;99909.19;;;12.52;100.00
46876;BME280;32866;50.160;14.768;2022-10-26T15:16:20;99906.50;;;12.36;100.00
46876;BME280;32866;50.160;14.768;2022-10-26T15:18:48;99900.81;;;12.30;100.00
46876;BME280;32866;50.160;14.768;2022-10-26T15:23:51;99918.13;;;12.14;100.00
46876;BME280;32866;50.160;14.768;2022-10-26T15:26:18;99901.69;;;11.98;100.00
46876;BME280;32866;50.160;14.768;2022-10-26T15:28:44;99905.13;;;12.02;100.00
46876;BME280;32866;50.160;14.768;2022-10-26T15:33:37;99916.78;;;12.06;100.00
46876;BME280;32866;50.160;14.768;2022-10-26T15:36:15;99924.19;;;12.35;100.00
46876;BME280;32866;50.160;14.768;2022-10-26T15:38:42;99906.84;;;12.25;100.00
46876;BME280;32866;50.160;14.768;2022-10-26T15:43:48;99929.53;;;12.00;100.00
46876;BME280;32866;50.160;14.768;2022-10-26T15:46:14;99913.38;;;11.85;100.00
46876;BME280;32866;50.160;14.768;2022-10-26T15:48:40;99921.31;;;11.83;100.00
46876;BME280;32866;50.160;14.768;2022-10-26T15:51:10;99914.34;;;11.79;100.00
46876;BME280;32866;50.160;14.768;2022-10-26T15:53:36;99918.81;;;11.73;100.00
46876;BME280;32866;50.160;14.768;2022-10-26T15:56:04;99892.03;;;11.47;100.00
46876;BME280;32866;50.160;14.768;2022-10-26T15:58:35;99917.03;;;11.66;100.00
46876;BME280;32866;50.160;14.768;2022-10-26T16:01:01;99920.31;;;11.61;100.00
46876;BME280;32866;50.160;14.768;2022-10-26T16:03:26;99927.53;;;11.55;100.00
46876;BME280;32866;50.160;14.768;2022-10-26T16:05:57;99913.66;;;11.45;100.00
46876;BME280;32866;50.160;14.768;2022-10-26T16:08:25;99901.22;;;11.41;100.00
46876;BME280;32866;50.160;14.768;2022-10-26T16:10:51;99926.94;;;11.47;100.00